North Somercotes, United Kingdom
Current Conditions -  °F | °C
As of 3:50 AM on Thursday 27 Nov 2014 (Local Time) from EGXS Reporting Station
Overcast Overcast  
Wind Chill: 46°   Ceiling: 400
Heat Index: 46°   Visibility: 0.4mi
Dew Point: 46°   Wind: 3mph
Humidity: 100%   Direction: 150°SSE
Pressure: 29.68"   Gusts: NA
Location:  53.45°N, 0.14°E
Report Text: EGXS 270350Z AUTO 15003KT 0650 // OVC004/// 08/08 Q1005
Loading
Personal Weather Stations






























Interactive Weather Map New forecast layout! Learn more

10-Day Weather Forecast

Advertisements
Track Severe Weather on mobile